createdAt,value
2018-12-26T00:00:03.850Z,72.33
2018-12-26T00:01:04.086Z,72.33
2018-12-26T00:04:04.405Z,72.33
2018-12-26T00:05:03.856Z,72.63
2018-12-26T00:07:04.075Z,72.14
2018-12-26T00:09:04.239Z,72.43
2018-12-26T00:10:04.011Z,72.14
2018-12-26T00:11:03.991Z,72.14
2018-12-26T00:12:05.486Z,71.95
2018-12-26T00:14:05.294Z,72.24
2018-12-26T00:15:04.458Z,72.43
2018-12-26T00:16:04.305Z,72.24
2018-12-26T00:17:04.171Z,72.24
2018-12-26T00:18:04.206Z,72.14
2018-12-26T00:20:04.524Z,72.33
2018-12-26T00:21:04.347Z,72.24
2018-12-26T00:22:04.685Z,72.14
2018-12-26T00:23:04.356Z,72.24
2018-12-26T00:25:04.464Z,72.33
2018-12-26T00:26:04.565Z,72.24
2018-12-26T00:27:04.470Z,72.14
2018-12-26T00:28:04.560Z,72.33
2018-12-26T00:29:04.828Z,72.33
2018-12-26T00:30:04.612Z,72.24
2018-12-26T00:31:04.636Z,72.24
2018-12-26T00:33:04.750Z,72.33
2018-12-26T00:34:04.728Z,72.24
2018-12-26T00:35:04.710Z,72.24
2018-12-26T00:37:05.079Z,72.24
2018-12-26T00:38:05.069Z,72.14
2018-12-26T00:39:04.874Z,72.33
2018-12-26T00:40:04.905Z,72.14
2018-12-26T00:41:04.928Z,72.33
2018-12-26T00:42:05.368Z,72.33
2018-12-26T00:43:05.381Z,72.33
2018-12-26T00:44:05.323Z,72.14
2018-12-26T00:45:05.070Z,72.14
2018-12-26T00:46:05.109Z,72.24
2018-12-26T00:47:05.114Z,72.14
2018-12-26T00:48:05.148Z,72.14
2018-12-26T00:50:05.150Z,72.24
2018-12-26T00:52:05.679Z,72.24
2018-12-26T00:53:05.297Z,72.24
2018-12-26T00:55:05.300Z,72.24
2018-12-26T00:57:05.406Z,72.24
2018-12-26T00:58:05.436Z,72.43
2018-12-26T00:59:05.721Z,72.33
2018-12-26T01:00:05.500Z,72.33
2018-12-26T01:01:05.477Z,72.43
2018-12-26T01:02:05.558Z,72.33
2018-12-26T01:03:05.584Z,72.43
2018-12-26T01:04:05.621Z,72.43
2018-12-26T01:07:05.708Z,72.33
2018-12-26T01:08:06.046Z,72.43
2018-12-26T01:09:05.778Z,72.33
2018-12-26T01:10:05.743Z,72.05
2018-12-26T01:11:05.824Z,72.43
2018-12-26T01:12:05.858Z,72.43
2018-12-26T01:13:05.841Z,72.33
2018-12-26T01:14:06.166Z,72.14
2018-12-26T01:15:05.895Z,72.33
2018-12-26T01:16:05.924Z,72.33
2018-12-26T01:17:05.955Z,72.14
2018-12-26T01:18:05.990Z,72.33
2018-12-26T01:19:06.060Z,72.14
2018-12-26T01:20:06.404Z,72.24
2018-12-26T01:21:06.121Z,72.14
2018-12-26T01:22:06.154Z,72.24
2018-12-26T01:23:06.127Z,72.24
2018-12-26T01:24:06.170Z,72.33
2018-12-26T01:25:06.242Z,72.33
2018-12-26T01:26:06.220Z,72.24
2018-12-26T01:27:06.550Z,72.24
2018-12-26T01:29:06.311Z,72.05
2018-12-26T01:30:06.398Z,72.14
2018-12-26T01:31:06.365Z,72.05
2018-12-26T01:32:06.453Z,72.24
2018-12-26T01:33:06.456Z,72.43
2018-12-26T01:35:06.940Z,72.24
2018-12-26T01:36:06.569Z,72.33
2018-12-26T01:37:06.648Z,72.24
2018-12-26T01:38:06.573Z,72.24
2018-12-26T01:39:06.609Z,71.95
2018-12-26T01:40:06.684Z,71.95
2018-12-26T01:41:06.722Z,72.33
2018-12-26T01:42:07.000Z,71.76
2018-12-26T01:43:06.728Z,72.14
2018-12-26T01:44:06.756Z,71.95
2018-12-26T01:45:06.829Z,72.14
2018-12-26T01:46:06.866Z,72.33
2018-12-26T01:47:06.840Z,72.33
2018-12-26T01:48:06.925Z,71.95
2018-12-26T01:49:07.206Z,71.95
2018-12-26T01:50:06.939Z,71.95
2018-12-26T01:51:07.026Z,72.24
2018-12-26T01:52:07.044Z,71.95
2018-12-26T01:53:07.019Z,72.24
2018-12-26T01:54:07.052Z,71.66
2018-12-26T01:55:07.082Z,71.66
2018-12-26T01:56:07.421Z,71.76
2018-12-26T01:57:07.142Z,71.86
2018-12-26T01:58:07.171Z,71.86
2018-12-26T01:59:07.197Z,71.86
2018-12-26T02:00:07.332Z,71.86
2018-12-26T02:02:07.335Z,72.14
2018-12-26T02:03:07.622Z,71.86
2018-12-26T02:04:07.498Z,72.14
2018-12-26T02:05:07.433Z,71.86
2018-12-26T02:06:07.407Z,72.14
2018-12-26T02:07:07.439Z,72.05
2018-12-26T02:08:07.479Z,71.86
2018-12-26T02:09:07.500Z,71.95
2018-12-26T02:10:07.831Z,71.76
2018-12-26T02:11:07.559Z,72.05
2018-12-26T02:12:07.642Z,71.95
2018-12-26T02:14:07.655Z,71.76
2018-12-26T02:15:07.741Z,71.86
2018-12-26T02:16:07.706Z,71.95
2018-12-26T02:17:08.037Z,71.95
2018-12-26T02:19:07.794Z,71.86
2018-12-26T02:20:07.832Z,71.86
2018-12-26T02:21:07.901Z,71.86
2018-12-26T02:22:07.879Z,71.86
2018-12-26T02:23:07.908Z,71.95
2018-12-26T02:24:08.244Z,71.95
2018-12-26T02:25:08.021Z,71.95
2018-12-26T02:26:07.995Z,71.95
2018-12-26T02:27:08.080Z,71.86
2018-12-26T02:28:08.105Z,71.95
2018-12-26T02:29:08.083Z,71.86
2018-12-26T02:30:08.116Z,71.95
2018-12-26T02:31:08.496Z,71.95
2018-12-26T02:32:08.231Z,71.95
2018-12-26T02:33:08.205Z,71.95
2018-12-26T02:34:08.233Z,71.86
2018-12-26T02:35:08.274Z,71.95
2018-12-26T02:36:08.354Z,71.76
2018-12-26T02:37:08.380Z,71.86
2018-12-26T02:38:08.655Z,71.57
2018-12-26T02:39:08.384Z,71.86
2018-12-26T02:41:08.499Z,71.86
2018-12-26T02:42:08.493Z,71.86
2018-12-26T02:43:08.537Z,71.86
2018-12-26T02:44:08.590Z,71.57
2018-12-26T02:45:08.923Z,71.76
2018-12-26T02:46:08.652Z,71.86
2018-12-26T02:47:08.670Z,71.95
2018-12-26T02:48:08.702Z,71.86
2018-12-26T02:49:08.678Z,71.57
2018-12-26T02:50:08.720Z,71.76
2018-12-26T02:51:08.792Z,71.95
2018-12-26T02:52:09.075Z,71.57
2018-12-26T02:53:08.853Z,71.86
2018-12-26T02:54:08.831Z,71.76
2018-12-26T02:55:08.862Z,71.86
2018-12-26T02:56:08.940Z,71.86
2018-12-26T02:57:08.918Z,71.86
2018-12-26T02:58:08.996Z,71.76
2018-12-26T02:59:09.290Z,71.86
2018-12-26T03:00:09.014Z,71.57
2018-12-26T03:01:09.038Z,71.86
2018-12-26T03:02:09.077Z,71.76
2018-12-26T03:03:09.158Z,71.57
2018-12-26T03:04:09.320Z,71.76
2018-12-26T03:05:09.210Z,71.86
2018-12-26T03:06:09.494Z,71.86
2018-12-26T03:07:09.212Z,71.86
2018-12-26T03:08:09.298Z,71.92
2018-12-26T03:09:09.271Z,71.95
2018-12-26T03:10:09.410Z,71.86
2018-12-26T03:11:09.391Z,71.92
2018-12-26T03:12:09.664Z,71.86
2018-12-26T03:13:09.443Z,71.95
2018-12-26T03:14:09.442Z,71.86
2018-12-26T03:15:09.485Z,71.86
2018-12-26T03:16:09.527Z,71.57
2018-12-26T03:17:09.531Z,71.72
2018-12-26T03:18:09.855Z,71.86
2018-12-26T03:19:09.654Z,71.92
2018-12-26T03:20:09.664Z,71.95
2018-12-26T03:21:09.633Z,71.82
2018-12-26T03:22:09.695Z,71.92
2018-12-26T03:24:09.767Z,71.82
2018-12-26T03:25:10.059Z,72.01
2018-12-26T03:26:09.844Z,71.86
2018-12-26T03:27:09.805Z,71.82
2018-12-26T03:28:09.890Z,71.63
2018-12-26T03:30:09.925Z,71.82
2018-12-26T03:31:10.237Z,71.82
2018-12-26T03:32:10.001Z,71.82
2018-12-26T03:33:09.980Z,71.82
2018-12-26T03:34:10.072Z,71.72
2018-12-26T03:35:10.104Z,72.01
2018-12-26T03:36:10.124Z,71.72
2018-12-26T03:37:10.101Z,71.44
2018-12-26T03:38:10.436Z,71.82
2018-12-26T03:39:10.229Z,71.63
2018-12-26T03:40:10.189Z,71.82
2018-12-26T03:41:10.232Z,71.92
2018-12-26T03:43:10.281Z,71.53
2018-12-26T03:44:10.361Z,71.44
2018-12-26T03:45:10.642Z,71.44
2018-12-26T03:46:10.470Z,71.63
2018-12-26T03:47:10.417Z,71.44
2018-12-26T03:48:10.440Z,71.92
2018-12-26T03:49:10.760Z,71.34
2018-12-26T03:50:10.543Z,71.44
2018-12-26T03:51:10.571Z,71.82
2018-12-26T03:52:10.897Z,71.63
2018-12-26T03:53:10.575Z,72.01
2018-12-26T03:54:10.649Z,71.82
2018-12-26T03:55:10.681Z,71.82
2018-12-26T03:56:10.710Z,71.82
2018-12-26T03:57:10.744Z,71.82
2018-12-26T03:58:10.768Z,71.92
2018-12-26T03:59:11.104Z,71.92
2018-12-26T04:00:10.835Z,71.92
2018-12-26T04:01:10.808Z,71.92
2018-12-26T04:02:10.892Z,72.01
2018-12-26T04:03:10.870Z,71.82
2018-12-26T04:04:10.898Z,71.82
2018-12-26T04:05:10.978Z,71.72
2018-12-26T04:06:11.309Z,71.63
2018-12-26T04:07:11.038Z,71.63
2018-12-26T04:08:11.012Z,71.63
2018-12-26T04:09:11.048Z,71.92
2018-12-26T04:10:11.077Z,71.72
2018-12-26T04:11:11.102Z,71.63
2018-12-26T04:12:11.181Z,71.53
2018-12-26T04:13:11.468Z,71.72
2018-12-26T04:14:11.195Z,71.72
2018-12-26T04:15:11.229Z,71.34
2018-12-26T04:16:11.301Z,71.25
2018-12-26T04:17:11.327Z,71.34
2018-12-26T04:18:11.362Z,71.44
2018-12-26T04:19:11.347Z,71.44
2018-12-26T04:20:11.669Z,71.44
2018-12-26T04:21:11.402Z,71.34
2018-12-26T04:22:11.428Z,71.25
2018-12-26T04:23:11.508Z,71.25
2018-12-26T04:24:11.539Z,71.25
2018-12-26T04:25:11.513Z,71.19
2018-12-26T04:26:11.551Z,71.57
2018-12-26T04:27:15.540Z,71.47
2018-12-26T04:28:11.607Z,71.57
2018-12-26T04:29:11.639Z,71.66
2018-12-26T04:30:11.671Z,71.66
2018-12-26T04:31:11.699Z,71.57
2018-12-26T04:32:11.772Z,71.66
2018-12-26T04:33:11.806Z,71.76
2018-12-26T04:34:12.082Z,71.53
2018-12-26T04:35:11.881Z,71.37
2018-12-26T04:36:11.841Z,71.37
2018-12-26T04:37:11.875Z,71.28
2018-12-26T04:38:11.975Z,71.19
2018-12-26T04:39:11.943Z,71.57
2018-12-26T04:42:46.815Z,70.99
2018-12-26T04:43:46.540Z,71.19
2018-12-26T04:44:46.605Z,70.99
2018-12-26T04:45:46.591Z,71.05
2018-12-26T04:46:46.665Z,71.15
2018-12-26T04:47:46.650Z,71.28
2018-12-26T04:48:47.025Z,70.99
2018-12-26T04:49:46.713Z,70.99
2018-12-26T04:50:46.780Z,71.28
2018-12-26T04:51:46.770Z,71.19
2018-12-26T04:52:46.848Z,71.19
2018-12-26T04:53:46.819Z,71.19
2018-12-26T04:54:47.151Z,71.19
2018-12-26T04:55:46.932Z,71.28
2018-12-26T04:56:46.957Z,70.99
2018-12-26T04:57:46.945Z,71.28
2018-12-26T04:58:47.073Z,71.05
2018-12-26T04:59:47.019Z,71.09
2018-12-26T05:00:47.083Z,71.05
2018-12-26T05:01:47.356Z,71.19
2018-12-26T05:02:47.139Z,71.05
2018-12-26T05:03:47.125Z,71.09
2018-12-26T05:04:47.153Z,71.34
2018-12-26T05:05:47.223Z,71.05
2018-12-26T05:06:47.262Z,71.15
2018-12-26T05:07:47.285Z,70.96
2018-12-26T05:08:47.573Z,71.05
2018-12-26T05:09:47.347Z,71.15
2018-12-26T05:11:47.361Z,71.05
2018-12-26T05:12:47.435Z,71.15
2018-12-26T05:13:47.414Z,71.15
2018-12-26T05:14:47.490Z,71.15
2018-12-26T05:15:47.785Z,71.05
2018-12-26T05:16:47.503Z,71.53
2018-12-26T05:17:47.591Z,71.05
2018-12-26T05:18:47.614Z,71.15
2018-12-26T05:19:47.589Z,71.25
2018-12-26T05:20:47.671Z,71.44
2018-12-26T05:21:47.655Z,71.25
2018-12-26T05:22:47.983Z,71.34
2018-12-26T05:23:47.716Z,71.05
2018-12-26T05:24:47.789Z,71.15
2018-12-26T05:25:47.777Z,71.47
2018-12-26T05:26:47.799Z,71.44
2018-12-26T05:27:47.878Z,71.34
2018-12-26T05:28:47.861Z,71.05
2018-12-26T05:29:48.235Z,71.44
2018-12-26T05:30:47.920Z,71.05
2018-12-26T05:31:47.949Z,71.34
2018-12-26T05:32:47.973Z,71.15
2018-12-26T05:33:48.011Z,71.25
2018-12-26T05:34:48.080Z,71.34
2018-12-26T05:35:48.058Z,71.34
2018-12-26T05:36:48.389Z,71.34
2018-12-26T05:37:48.123Z,71.34
2018-12-26T05:38:48.152Z,71.34
2018-12-26T05:39:48.232Z,71.34
2018-12-26T05:40:48.211Z,71.15
2018-12-26T05:41:48.291Z,71.15
2018-12-26T05:42:48.280Z,71.15
2018-12-26T05:43:48.596Z,71.34
2018-12-26T05:44:48.378Z,71.15
2018-12-26T05:45:48.356Z,71.15
2018-12-26T05:46:48.439Z,70.96
2018-12-26T05:47:48.419Z,71.15
2018-12-26T05:48:48.497Z,71.15
2018-12-26T05:49:48.477Z,71.15
2018-12-26T05:50:48.801Z,71.34
2018-12-26T05:51:48.535Z,71.25
2018-12-26T05:52:48.566Z,71.15
2018-12-26T05:53:48.640Z,71.05
2018-12-26T05:54:48.670Z,71.15
2018-12-26T05:55:48.653Z,70.96
2018-12-26T05:56:48.682Z,71.15
2018-12-26T05:57:49.010Z,71.15
2018-12-26T05:58:48.747Z,70.96
2018-12-26T05:59:48.821Z,71.05
2018-12-26T06:00:48.860Z,70.96
2018-12-26T06:01:48.825Z,71.15
2018-12-26T06:02:48.862Z,71.25
2018-12-26T06:03:48.889Z,71.25
2018-12-26T06:04:49.265Z,71.25
2018-12-26T06:05:48.948Z,71.25
2018-12-26T06:06:49.026Z,71.25
2018-12-26T06:07:49.010Z,70.96
2018-12-26T06:08:49.035Z,71.34
2018-12-26T06:09:49.117Z,71.25
2018-12-26T06:10:49.091Z,71.34
2018-12-26T06:11:49.429Z,71.15
2018-12-26T06:12:49.262Z,71.25
2018-12-26T06:13:49.183Z,70.96
2018-12-26T06:14:49.265Z,70.96
2018-12-26T06:15:49.253Z,71.05
2018-12-26T06:16:49.270Z,70.96
2018-12-26T06:17:49.357Z,70.76
2018-12-26T06:18:49.626Z,70.76
2018-12-26T06:19:49.411Z,70.86
2018-12-26T06:20:49.446Z,70.86
2018-12-26T06:21:49.422Z,70.96
2018-12-26T06:22:49.502Z,70.96
2018-12-26T06:23:49.484Z,70.86
2018-12-26T06:24:49.502Z,70.67
2018-12-26T06:25:49.889Z,70.96
2018-12-26T06:26:49.617Z,70.96
2018-12-26T06:27:51.621Z,70.57
2018-12-26T06:28:49.624Z,70.38
2018-12-26T06:29:49.736Z,70.76
2018-12-26T06:30:49.733Z,70.86
2018-12-26T06:31:49.709Z,70.86
2018-12-26T06:32:50.041Z,70.67
2018-12-26T06:33:49.767Z,70.86
2018-12-26T06:34:49.853Z,70.76
2018-12-26T06:35:49.827Z,70.86
2018-12-26T06:36:49.916Z,70.57
2018-12-26T06:37:49.897Z,70.67
2018-12-26T06:38:50.217Z,70.57
2018-12-26T06:39:50.001Z,70.67
2018-12-26T06:41:50.054Z,70.67
2018-12-26T06:42:50.037Z,70.67
2018-12-26T06:43:50.064Z,70.67
2018-12-26T06:44:50.392Z,70.86
2018-12-26T06:45:50.122Z,70.67
2018-12-26T06:46:50.210Z,70.57
2018-12-26T06:47:50.189Z,70.86
2018-12-26T06:48:50.259Z,70.67
2018-12-26T06:49:50.247Z,70.48
2018-12-26T06:50:50.582Z,70.76
2018-12-26T06:51:50.298Z,70.48
2018-12-26T06:52:50.337Z,70.51
2018-12-26T06:53:50.412Z,70.76
2018-12-26T06:54:50.392Z,70.76
2018-12-26T06:55:50.473Z,70.48
2018-12-26T06:56:50.513Z,70.51
2018-12-26T06:57:50.787Z,70.38
2018-12-26T06:58:50.511Z,70.48
2018-12-26T06:59:50.593Z,70.67
2018-12-26T07:01:50.596Z,70.86
2018-12-26T07:02:50.631Z,70.80
2018-12-26T07:03:50.655Z,70.57
2018-12-26T07:04:51.001Z,70.38
2018-12-26T07:05:50.711Z,70.86
2018-12-26T07:06:50.751Z,70.57
2018-12-26T07:07:50.780Z,70.86
2018-12-26T07:08:50.858Z,70.48
2018-12-26T07:09:50.831Z,70.86
2018-12-26T07:10:50.868Z,70.57
2018-12-26T07:11:51.195Z,70.76
2018-12-26T07:12:50.970Z,70.86
2018-12-26T07:13:50.957Z,70.48
2018-12-26T07:14:51.031Z,70.57
2018-12-26T07:15:51.064Z,70.86
2018-12-26T07:16:51.102Z,70.76
2018-12-26T07:17:51.124Z,70.76
2018-12-26T07:18:51.399Z,70.38
2018-12-26T07:19:51.129Z,70.76
2018-12-26T07:20:51.177Z,70.76
2018-12-26T07:21:51.234Z,70.76
2018-12-26T07:22:51.269Z,70.67
2018-12-26T07:23:51.245Z,70.86
2018-12-26T07:24:51.291Z,70.86
2018-12-26T07:25:51.371Z,70.86
2018-12-26T07:26:51.335Z,70.86
2018-12-26T07:27:51.364Z,70.86
2018-12-26T07:28:51.402Z,70.67
2018-12-26T07:29:51.477Z,70.76
2018-12-26T07:30:51.505Z,70.67
2018-12-26T07:31:51.784Z,70.67
2018-12-26T07:32:51.514Z,70.67
2018-12-26T07:33:51.609Z,70.67
2018-12-26T07:34:51.624Z,70.57
2018-12-26T07:35:51.600Z,70.57
2018-12-26T07:37:51.712Z,70.76
2018-12-26T07:38:51.990Z,70.96
2018-12-26T07:39:51.729Z,70.67
2018-12-26T07:40:51.743Z,70.76
2018-12-26T07:41:51.841Z,70.67
2018-12-26T07:42:51.852Z,70.67
2018-12-26T07:43:51.882Z,70.76
2018-12-26T07:44:51.919Z,70.86
2018-12-26T07:45:52.208Z,70.29
2018-12-26T07:46:51.937Z,70.29
2018-12-26T07:47:51.957Z,70.96
2018-12-26T07:48:51.982Z,70.38
2018-12-26T07:49:52.058Z,70.67
2018-12-26T07:50:52.091Z,70.19
2018-12-26T07:51:52.074Z,70.29
2018-12-26T07:52:52.419Z,70.29
2018-12-26T07:53:52.180Z,70.29
2018-12-26T07:54:52.205Z,70.09
2018-12-26T07:55:52.205Z,70.38
2018-12-26T07:56:52.278Z,69.90
2018-12-26T07:57:52.248Z,69.90
2018-12-26T07:58:52.337Z,70.09
2018-12-26T07:59:52.609Z,70.29
2018-12-26T08:00:52.389Z,70.38
2018-12-26T08:01:52.372Z,70.29
2018-12-26T08:02:52.459Z,70.00
2018-12-26T08:03:52.424Z,69.81
2018-12-26T08:04:52.451Z,70.38
2018-12-26T08:05:52.780Z,70.38
2018-12-26T08:06:52.568Z,70.29
2018-12-26T08:07:52.546Z,70.00
2018-12-26T08:08:52.627Z,70.09
2018-12-26T08:09:52.659Z,70.00
2018-12-26T08:10:52.679Z,70.19
2018-12-26T08:11:52.960Z,70.38
2018-12-26T08:12:52.694Z,70.19
2018-12-26T08:13:52.717Z,70.29
2018-12-26T08:14:52.747Z,70.19
2018-12-26T08:15:52.828Z,70.29
2018-12-26T08:16:53.406Z,70.38
2018-12-26T08:17:53.142Z,70.38
2018-12-26T08:18:52.920Z,70.29
2018-12-26T08:19:52.900Z,70.19
2018-12-26T08:20:52.925Z,70.38
2018-12-26T08:21:53.002Z,70.51
2018-12-26T08:22:52.982Z,70.32
2018-12-26T08:23:53.063Z,70.03
2018-12-26T08:24:53.350Z,69.93
2018-12-26T08:25:53.073Z,69.93
2018-12-26T08:26:53.691Z,69.84
2018-12-26T08:27:53.234Z,69.84
2018-12-26T08:28:53.162Z,70.13
2018-12-26T08:29:53.188Z,70.13
2018-12-26T08:30:53.218Z,70.03
2018-12-26T08:31:53.553Z,70.03
2018-12-26T08:32:53.324Z,69.90
2018-12-26T08:33:53.354Z,69.93
2018-12-26T08:34:53.391Z,70.03
2018-12-26T08:35:53.370Z,70.03
2018-12-26T08:36:53.399Z,69.84
2018-12-26T08:37:53.438Z,69.93
2018-12-26T08:38:53.509Z,69.93
2018-12-26T08:39:53.483Z,69.93
2018-12-26T08:40:53.575Z,69.65
2018-12-26T08:41:53.554Z,70.23
2018-12-26T08:42:53.634Z,69.93
2018-12-26T08:43:53.671Z,69.84
2018-12-26T08:44:53.942Z,70.13
2018-12-26T08:45:53.663Z,69.84
2018-12-26T08:46:53.745Z,69.93
2018-12-26T08:47:53.726Z,69.93
2018-12-26T08:48:53.755Z,69.65
2018-12-26T08:49:53.834Z,70.23
2018-12-26T08:50:53.866Z,70.23
2018-12-26T08:51:54.190Z,69.74
2018-12-26T08:52:53.871Z,70.03
2018-12-26T08:53:53.907Z,69.65
2018-12-26T08:54:53.983Z,69.84
2018-12-26T08:55:53.988Z,69.65
2018-12-26T08:56:54.049Z,69.74
2018-12-26T08:57:54.023Z,69.84
2018-12-26T08:58:54.353Z,69.65
2018-12-26T08:59:54.076Z,69.84
2018-12-26T09:00:54.156Z,69.84
2018-12-26T09:01:54.135Z,69.84
2018-12-26T09:02:54.164Z,69.74
2018-12-26T09:03:54.613Z,69.46
2018-12-26T09:04:54.281Z,69.56
2018-12-26T09:05:54.576Z,70.03
2018-12-26T09:06:54.298Z,69.56
2018-12-26T09:07:54.387Z,69.46
2018-12-26T09:08:54.351Z,69.65
2018-12-26T09:09:54.379Z,70.03
2018-12-26T09:10:54.422Z,69.65
2018-12-26T09:11:54.537Z,69.46
2018-12-26T09:12:54.768Z,69.26
2018-12-26T09:13:54.501Z,69.93
2018-12-26T09:14:54.582Z,69.93
2018-12-26T09:15:54.555Z,69.74
2018-12-26T09:16:54.630Z,69.93
2018-12-26T09:17:54.726Z,69.46
2018-12-26T09:18:54.706Z,69.46
2018-12-26T09:19:54.978Z,69.65
2018-12-26T09:20:54.850Z,69.65
2018-12-26T09:21:54.791Z,69.56
2018-12-26T09:22:54.813Z,69.74
2018-12-26T09:23:54.846Z,69.56
2018-12-26T09:24:54.838Z,69.56
2018-12-26T09:25:55.157Z,69.65
2018-12-26T09:26:54.876Z,69.46
2018-12-26T09:27:54.959Z,69.93
2018-12-26T09:28:57.057Z,69.74
2018-12-26T09:29:55.021Z,69.74
2018-12-26T09:30:55.002Z,69.74
2018-12-26T09:31:55.327Z,69.84
2018-12-26T09:32:55.109Z,69.84
2018-12-26T09:33:55.087Z,69.84
2018-12-26T09:34:55.178Z,69.84
2018-12-26T09:35:55.145Z,69.74
2018-12-26T09:36:55.180Z,69.84
2018-12-26T09:37:55.503Z,69.84
2018-12-26T09:38:55.283Z,69.56
2018-12-26T09:39:55.318Z,69.46
2018-12-26T09:40:55.295Z,69.65
2018-12-26T09:41:55.377Z,69.65
2018-12-26T09:42:55.400Z,69.84
2018-12-26T09:43:55.389Z,69.84
2018-12-26T09:44:55.712Z,69.36
2018-12-26T09:45:55.441Z,69.36
2018-12-26T09:46:55.549Z,69.26
2018-12-26T09:47:55.562Z,69.07
2018-12-26T09:48:55.579Z,69.17
2018-12-26T09:49:55.562Z,69.26
2018-12-26T09:50:55.594Z,69.07
2018-12-26T09:51:55.923Z,69.07
2018-12-26T09:52:55.700Z,68.98
2018-12-26T09:53:55.679Z,69.07
2018-12-26T09:54:55.761Z,68.88
2018-12-26T09:55:55.740Z,69.07
2018-12-26T09:56:55.775Z,69.07
2018-12-26T09:57:55.849Z,68.98
2018-12-26T09:58:56.131Z,69.07
2018-12-26T09:59:55.913Z,69.36
2018-12-26T10:00:55.965Z,68.98
2018-12-26T10:01:55.917Z,69.17
2018-12-26T10:02:55.998Z,68.98
2018-12-26T10:03:55.979Z,69.26
2018-12-26T10:04:56.074Z,69.36
2018-12-26T10:05:56.337Z,68.69
2018-12-26T10:06:56.122Z,69.07
2018-12-26T10:07:56.096Z,68.98
2018-12-26T10:08:56.132Z,68.79
2018-12-26T10:09:56.211Z,68.98
2018-12-26T10:10:56.194Z,68.98
2018-12-26T10:11:56.272Z,68.98
2018-12-26T10:12:56.560Z,68.50
2018-12-26T10:13:56.291Z,68.50
2018-12-26T10:14:56.360Z,68.59
2018-12-26T10:15:56.381Z,68.79
2018-12-26T10:16:56.410Z,68.79
2018-12-26T10:17:56.395Z,68.59
2018-12-26T10:18:56.427Z,68.98
2018-12-26T10:19:56.762Z,68.88
2018-12-26T10:20:56.495Z,68.40
2018-12-26T10:21:56.520Z,68.30
2018-12-26T10:22:56.599Z,68.40
2018-12-26T10:23:56.646Z,68.50
2018-12-26T10:24:56.656Z,68.73
2018-12-26T10:25:56.641Z,68.50
2018-12-26T10:26:56.966Z,68.40
2018-12-26T10:27:56.751Z,68.53
2018-12-26T10:29:00.871Z,68.44
2018-12-26T10:29:56.770Z,68.44
2018-12-26T10:30:56.780Z,68.63
2018-12-26T10:31:56.808Z,68.02
2018-12-26T10:32:56.842Z,68.02
2018-12-26T10:33:57.169Z,67.76
2018-12-26T10:34:56.957Z,68.05
2018-12-26T10:35:56.986Z,67.86
2018-12-26T10:36:57.015Z,67.96
2018-12-26T10:37:56.994Z,68.82
2018-12-26T10:38:57.038Z,68.59
2018-12-26T10:39:57.065Z,68.15
2018-12-26T10:40:57.389Z,67.96
2018-12-26T10:41:57.119Z,68.15
2018-12-26T10:42:57.212Z,68.15
2018-12-26T10:43:57.179Z,68.15
2018-12-26T10:44:57.366Z,68.34
2018-12-26T10:45:57.278Z,68.34
2018-12-26T10:46:57.314Z,68.24
2018-12-26T10:48:57.678Z,68.24
2018-12-26T10:49:57.427Z,68.24
2018-12-26T10:50:57.451Z,68.24
2018-12-26T10:51:57.417Z,68.24
2018-12-26T10:52:57.437Z,68.24
2018-12-26T10:53:57.533Z,68.24
2018-12-26T10:54:57.562Z,68.24
2018-12-26T10:55:57.838Z,68.24
2018-12-26T10:56:57.615Z,68.15
2018-12-26T10:57:57.648Z,68.24
2018-12-26T10:58:57.671Z,68.05
2018-12-26T10:59:57.656Z,68.15
2018-12-26T11:00:57.733Z,68.34
2018-12-26T11:01:57.710Z,68.24
2018-12-26T11:02:58.048Z,68.44
2018-12-26T11:03:57.823Z,68.24
2018-12-26T11:04:57.798Z,68.44
2018-12-26T11:05:57.878Z,68.63
2018-12-26T11:06:57.913Z,68.44
2018-12-26T11:07:57.938Z,68.24
2018-12-26T11:08:57.972Z,68.44
2018-12-26T11:09:58.249Z,68.05
2018-12-26T11:10:57.982Z,67.96
2018-12-26T11:11:58.012Z,67.86
2018-12-26T11:12:58.090Z,67.96
2018-12-26T11:13:58.069Z,68.15
2018-12-26T11:14:58.152Z,68.24
2018-12-26T11:15:58.128Z,68.15
2018-12-26T11:16:58.464Z,68.24
2018-12-26T11:17:58.205Z,67.96
2018-12-26T11:18:58.217Z,68.15
2018-12-26T11:19:58.305Z,68.05
2018-12-26T11:20:58.282Z,68.24
2018-12-26T11:21:59.953Z,67.96
2018-12-26T11:22:58.405Z,68.15
2018-12-26T11:23:58.679Z,68.15
2018-12-26T11:24:58.453Z,68.24
2018-12-26T11:25:58.429Z,68.15
2018-12-26T11:26:58.512Z,68.05
2018-12-26T11:27:58.501Z,67.76
2018-12-26T11:29:58.602Z,67.76
2018-12-26T11:30:58.879Z,67.76
2018-12-26T11:31:58.669Z,68.05
2018-12-26T11:32:58.693Z,68.05
2018-12-26T11:33:58.668Z,67.86
2018-12-26T11:34:58.752Z,67.67
2018-12-26T11:35:58.738Z,67.57
2018-12-26T11:36:58.763Z,67.57
2018-12-26T11:37:58.841Z,67.57
2018-12-26T11:38:58.872Z,67.47
2018-12-26T11:39:58.871Z,67.57
2018-12-26T11:40:58.885Z,67.67
2018-12-26T11:41:58.916Z,67.67
2018-12-26T11:42:58.996Z,67.67
2018-12-26T11:43:58.979Z,67.47
2018-12-26T11:44:59.056Z,67.76
2018-12-26T11:45:59.035Z,67.47
2018-12-26T11:46:59.070Z,67.67
2018-12-26T11:47:59.149Z,67.76
2018-12-26T11:48:59.178Z,67.67
2018-12-26T11:49:59.455Z,67.29
2018-12-26T11:50:59.274Z,67.19
2018-12-26T11:51:59.218Z,67.29
2018-12-26T11:52:59.260Z,67.19
2018-12-26T11:53:59.352Z,67.29
2018-12-26T11:54:59.366Z,67.38
2018-12-26T11:55:59.640Z,67.38
2018-12-26T11:56:59.366Z,67.47
2018-12-26T11:57:59.392Z,67.57
2018-12-26T11:58:59.472Z,67.47
2018-12-26T11:59:59.457Z,67.38
2018-12-26T12:00:59.543Z,67.57
2018-12-26T12:01:59.516Z,67.67
2018-12-26T12:02:59.843Z,67.67
2018-12-26T12:03:59.625Z,67.19
2018-12-26T12:04:59.607Z,67.09
2018-12-26T12:05:59.682Z,67.09
2018-12-26T12:06:59.750Z,67.00
2018-12-26T12:07:59.753Z,66.90
2018-12-26T12:08:59.724Z,67.19
2018-12-26T12:10:00.060Z,67.09
2018-12-26T12:10:59.807Z,67.29
2018-12-26T12:11:59.867Z,67.19
2018-12-26T12:12:59.894Z,67.00
2018-12-26T12:13:59.878Z,67.29
2018-12-26T12:14:59.907Z,67.00
2018-12-26T12:15:59.941Z,66.90
2018-12-26T12:17:00.321Z,66.84
2018-12-26T12:18:00.004Z,67.09
2018-12-26T12:19:00.083Z,67.03
2018-12-26T12:20:00.289Z,66.74
2018-12-26T12:21:00.147Z,66.93
2018-12-26T12:22:00.174Z,66.93
2018-12-26T12:23:00.206Z,66.80
2018-12-26T12:24:00.480Z,67.03
2018-12-26T12:25:00.346Z,66.93
2018-12-26T12:26:00.296Z,66.93
2018-12-26T12:27:00.321Z,66.84
2018-12-26T12:28:00.305Z,66.74
2018-12-26T12:29:00.385Z,66.84
2018-12-26T12:30:00.462Z,66.84
2018-12-26T12:31:00.692Z,66.74
2018-12-26T12:32:00.423Z,66.55
2018-12-26T12:33:00.512Z,66.55
2018-12-26T12:34:00.482Z,66.55
2018-12-26T12:35:00.528Z,66.74
2018-12-26T12:36:00.599Z,66.36
2018-12-26T12:37:00.589Z,66.26
2018-12-26T12:38:00.912Z,66.36
2018-12-26T12:39:00.708Z,66.46
2018-12-26T12:40:00.666Z,66.46
2018-12-26T12:41:00.698Z,66.55
2018-12-26T12:42:00.790Z,66.55
2018-12-26T12:43:00.850Z,66.55
2018-12-26T12:44:00.803Z,66.55
2018-12-26T12:45:01.124Z,66.55
2018-12-26T12:46:00.854Z,66.64
2018-12-26T12:47:00.980Z,66.26
2018-12-26T12:48:00.962Z,66.64
2018-12-26T12:49:00.999Z,66.55
2018-12-26T12:50:00.992Z,66.36
2018-12-26T12:51:01.001Z,66.55
2018-12-26T12:52:01.332Z,66.64
2018-12-26T12:53:01.071Z,66.55
2018-12-26T12:54:01.151Z,66.55
2018-12-26T12:55:01.141Z,66.16
2018-12-26T12:56:01.210Z,66.07
2018-12-26T12:57:01.253Z,66.07
2018-12-26T12:58:01.221Z,66.16
2018-12-26T12:59:01.549Z,66.07
2018-12-26T13:00:01.337Z,65.97
2018-12-26T13:02:01.394Z,65.97
2018-12-26T13:03:01.446Z,66.07
2018-12-26T13:04:01.405Z,66.07
2018-12-26T13:05:01.509Z,66.26
2018-12-26T13:06:01.872Z,66.26
2018-12-26T13:08:01.575Z,66.26
2018-12-26T13:09:01.562Z,66.26
2018-12-26T13:10:01.646Z,66.26
2018-12-26T13:11:01.671Z,66.16
2018-12-26T13:12:01.761Z,66.36
2018-12-26T13:13:01.980Z,66.07
2018-12-26T13:14:01.761Z,66.36
2018-12-26T13:15:01.929Z,65.88
2018-12-26T13:16:01.802Z,66.36
2018-12-26T13:17:01.863Z,66.36
2018-12-26T13:19:01.908Z,66.26
2018-12-26T13:20:02.249Z,65.69
2018-12-26T13:22:02.229Z,65.88
2018-12-26T13:24:02.063Z,65.69
2018-12-26T13:25:02.103Z,65.59
2018-12-26T13:28:02.303Z,65.59
2018-12-26T13:30:02.303Z,66.36
2018-12-26T13:31:04.970Z,65.78
2018-12-26T13:32:02.307Z,66.30
2018-12-26T13:33:02.293Z,66.26